logo
Rechercher aéroport 
image banner adimage banner adimage banner ad
image banner ad

OTBD - Doha Intl

Situé à Doha, Qatar

ICAO - OTBD, IATA - DIA

Données fournies par Airmate  

Information générale

Coordonnées: N25°15'40" E51°33'54"
Élévation : 37 feet MSL.
 
Voir autres Aéroports à Ad Dawhah Municipality

Données opérationnelles

Special qualification required
Heure actuelle UTC:
Heure actuelle locale:
Météo
METAR: OTBD 240700Z 35014KT CAVOK 39/09 Q1005 NOSIG
TAF: TAF OTBD 240528Z 2406/2512 36011KT CAVOK TEMPO 2406/2417 29010KT TEMPO 2406/2420 36015G25KT
Voir NOTAMs / SUP AIP / TFR affectant cet aéroport [VIEW]
Fréquences de communication: [VIEW]

Pistes:

Identifiant RWYQFULongueur (ft)Largeur (ft)SurfaceLDA (ft)
15158°14993151ASP
33338°14993151ASP

Coordonnées de l'aéroport

Adresse: Doha Qatar

Vue satellite de OTBD